sensor_id;sensor_type;location;lat;lon;timestamp;temperature;humidity
44271;DHT22;29963;44.594;11.368;2023-08-08T00:01:57;22.30;66.90
44271;DHT22;29963;44.594;11.368;2023-08-08T00:04:23;22.20;66.70
44271;DHT22;29963;44.594;11.368;2023-08-08T00:06:49;22.10;66.80
44271;DHT22;29963;44.594;11.368;2023-08-08T00:09:14;22.00;67.20
44271;DHT22;29963;44.594;11.368;2023-08-08T00:11:40;22.00;68.00
44271;DHT22;29963;44.594;11.368;2023-08-08T00:14:05;21.90;67.50
44271;DHT22;29963;44.594;11.368;2023-08-08T00:16:31;21.80;67.90
44271;DHT22;29963;44.594;11.368;2023-08-08T00:18:57;21.60;68.70
44271;DHT22;29963;44.594;11.368;2023-08-08T00:21:23;21.50;69.10
44271;DHT22;29963;44.594;11.368;2023-08-08T00:23:48;21.30;69.80
44271;DHT22;29963;44.594;11.368;2023-08-08T00:26:14;21.30;69.40
44271;DHT22;29963;44.594;11.368;2023-08-08T00:28:39;21.10;70.00
44271;DHT22;29963;44.594;11.368;2023-08-08T00:31:05;21.00;71.00
44271;DHT22;29963;44.594;11.368;2023-08-08T00:33:31;20.80;72.70
44271;DHT22;29963;44.594;11.368;2023-08-08T00:35:56;20.60;74.60
44271;DHT22;29963;44.594;11.368;2023-08-08T00:38:22;20.30;75.40
44271;DHT22;29963;44.594;11.368;2023-08-08T00:40:48;20.30;76.40
44271;DHT22;29963;44.594;11.368;2023-08-08T00:43:13;19.80;76.70
44271;DHT22;29963;44.594;11.368;2023-08-08T00:45:42;20.20;76.90
44271;DHT22;29963;44.594;11.368;2023-08-08T00:48:08;20.10;77.30
44271;DHT22;29963;44.594;11.368;2023-08-08T00:50:35;20.00;78.80
44271;DHT22;29963;44.594;11.368;2023-08-08T00:53:02;19.80;79.40
44271;DHT22;29963;44.594;11.368;2023-08-08T00:55:28;19.70;80.40
44271;DHT22;29963;44.594;11.368;2023-08-08T00:57:54;19.50;81.70
44271;DHT22;29963;44.594;11.368;2023-08-08T01:00:20;19.50;82.80
44271;DHT22;29963;44.594;11.368;2023-08-08T01:02:45;19.40;82.80
44271;DHT22;29963;44.594;11.368;2023-08-08T01:05:11;19.40;83.40
44271;DHT22;29963;44.594;11.368;2023-08-08T01:10:18;19.40;83.90
44271;DHT22;29963;44.594;11.368;2023-08-08T01:12:48;19.40;84.90
44271;DHT22;29963;44.594;11.368;2023-08-08T01:15:16;19.40;85.60
44271;DHT22;29963;44.594;11.368;2023-08-08T01:17:43;19.50;84.90
44271;DHT22;29963;44.594;11.368;2023-08-08T01:20:09;19.40;85.50
44271;DHT22;29963;44.594;11.368;2023-08-08T01:22:39;19.40;86.70
44271;DHT22;29963;44.594;11.368;2023-08-08T01:25:07;19.40;87.30
44271;DHT22;29963;44.594;11.368;2023-08-08T01:27:32;19.30;87.50
44271;DHT22;29963;44.594;11.368;2023-08-08T01:29:58;19.40;87.50
44271;DHT22;29963;44.594;11.368;2023-08-08T01:32:24;19.50;87.80
44271;DHT22;29963;44.594;11.368;2023-08-08T01:34:49;19.80;87.60
44271;DHT22;29963;44.594;11.368;2023-08-08T01:37:44;19.90;86.10
44271;DHT22;29963;44.594;11.368;2023-08-08T01:40:13;20.00;85.10
44271;DHT22;29963;44.594;11.368;2023-08-08T01:42:42;20.10;85.20
44271;DHT22;29963;44.594;11.368;2023-08-08T01:45:09;20.20;85.70
44271;DHT22;29963;44.594;11.368;2023-08-08T01:47:35;20.30;85.90
44271;DHT22;29963;44.594;11.368;2023-08-08T01:50:01;20.20;85.50
44271;DHT22;29963;44.594;11.368;2023-08-08T01:52:27;20.10;86.00
44271;DHT22;29963;44.594;11.368;2023-08-08T01:54:52;20.10;86.50
44271;DHT22;29963;44.594;11.368;2023-08-08T01:57:18;20.10;87.40
44271;DHT22;29963;44.594;11.368;2023-08-08T01:59:45;20.10;86.10
44271;DHT22;29963;44.594;11.368;2023-08-08T02:02:11;20.00;86.80
44271;DHT22;29963;44.594;11.368;2023-08-08T02:04:37;19.80;87.10
44271;DHT22;29963;44.594;11.368;2023-08-08T02:07:02;19.70;88.40
44271;DHT22;29963;44.594;11.368;2023-08-08T02:09:28;19.70;88.40
44271;DHT22;29963;44.594;11.368;2023-08-08T02:11:54;19.60;88.20
44271;DHT22;29963;44.594;11.368;2023-08-08T02:14:19;19.60;87.80
44271;DHT22;29963;44.594;11.368;2023-08-08T02:16:45;19.70;88.20
44271;DHT22;29963;44.594;11.368;2023-08-08T02:19:11;19.70;88.20
44271;DHT22;29963;44.594;11.368;2023-08-08T02:21:36;19.70;87.80
44271;DHT22;29963;44.594;11.368;2023-08-08T02:24:02;19.60;88.40
44271;DHT22;29963;44.594;11.368;2023-08-08T02:26:28;19.60;88.80
44271;DHT22;29963;44.594;11.368;2023-08-08T02:28:54;19.60;87.90
44271;DHT22;29963;44.594;11.368;2023-08-08T02:31:19;19.50;87.30
44271;DHT22;29963;44.594;11.368;2023-08-08T02:33:50;19.50;87.20
44271;DHT22;29963;44.594;11.368;2023-08-08T02:36:17;19.40;88.30
44271;DHT22;29963;44.594;11.368;2023-08-08T02:38:42;19.30;89.70
44271;DHT22;29963;44.594;11.368;2023-08-08T02:41:08;19.40;90.00
44271;DHT22;29963;44.594;11.368;2023-08-08T02:43:34;19.50;90.10
44271;DHT22;29963;44.594;11.368;2023-08-08T02:45:59;19.40;90.20
44271;DHT22;29963;44.594;11.368;2023-08-08T02:48:25;19.40;90.60
44271;DHT22;29963;44.594;11.368;2023-08-08T02:50:50;19.30;91.00
44271;DHT22;29963;44.594;11.368;2023-08-08T02:53:16;19.20;91.20
44271;DHT22;29963;44.594;11.368;2023-08-08T02:55:42;19.10;91.70
44271;DHT22;29963;44.594;11.368;2023-08-08T02:58:07;19.00;91.90
44271;DHT22;29963;44.594;11.368;2023-08-08T03:00:33;18.90;92.20
44271;DHT22;29963;44.594;11.368;2023-08-08T03:02:58;18.80;92.60
44271;DHT22;29963;44.594;11.368;2023-08-08T03:05:24;18.80;93.00
44271;DHT22;29963;44.594;11.368;2023-08-08T03:07:50;18.80;93.30
44271;DHT22;29963;44.594;11.368;2023-08-08T03:10:15;18.70;93.60
44271;DHT22;29963;44.594;11.368;2023-08-08T03:12:42;18.60;93.90
44271;DHT22;29963;44.594;11.368;2023-08-08T03:15:08;18.50;94.70
44271;DHT22;29963;44.594;11.368;2023-08-08T03:17:34;18.50;95.10
44271;DHT22;29963;44.594;11.368;2023-08-08T03:20:00;18.60;95.30
44271;DHT22;29963;44.594;11.368;2023-08-08T03:22:26;18.50;95.60
44271;DHT22;29963;44.594;11.368;2023-08-08T03:24:52;18.30;96.40
44271;DHT22;29963;44.594;11.368;2023-08-08T03:27:17;18.10;97.00
44271;DHT22;29963;44.594;11.368;2023-08-08T03:29:43;18.00;97.60
44271;DHT22;29963;44.594;11.368;2023-08-08T03:32:08;17.90;97.90
44271;DHT22;29963;44.594;11.368;2023-08-08T03:34:34;17.80;98.00
44271;DHT22;29963;44.594;11.368;2023-08-08T03:36:59;17.90;98.00
44271;DHT22;29963;44.594;11.368;2023-08-08T03:39:25;17.90;97.90
44271;DHT22;29963;44.594;11.368;2023-08-08T03:41:51;18.10;98.00
44271;DHT22;29963;44.594;11.368;2023-08-08T03:44:17;18.30;97.90
44271;DHT22;29963;44.594;11.368;2023-08-08T03:46:43;18.50;97.50
44271;DHT22;29963;44.594;11.368;2023-08-08T03:49:08;18.70;97.30
44271;DHT22;29963;44.594;11.368;2023-08-08T03:51:34;18.70;96.70
44271;DHT22;29963;44.594;11.368;2023-08-08T03:54:00;18.70;96.30
44271;DHT22;29963;44.594;11.368;2023-08-08T03:56:25;18.50;96.80
44271;DHT22;29963;44.594;11.368;2023-08-08T03:58:52;18.40;97.00
44271;DHT22;29963;44.594;11.368;2023-08-08T04:01:18;18.20;97.70
44271;DHT22;29963;44.594;11.368;2023-08-08T04:03:44;18.10;98.20
44271;DHT22;29963;44.594;11.368;2023-08-08T04:06:09;17.90;98.30
44271;DHT22;29963;44.594;11.368;2023-08-08T04:08:35;17.90;98.20
44271;DHT22;29963;44.594;11.368;2023-08-08T04:11:00;17.80;98.60
44271;DHT22;29963;44.594;11.368;2023-08-08T04:13:26;17.70;98.80
44271;DHT22;29963;44.594;11.368;2023-08-08T04:15:52;17.60;98.80
44271;DHT22;29963;44.594;11.368;2023-08-08T04:18:18;17.60;99.30
44271;DHT22;29963;44.594;11.368;2023-08-08T04:20:45;17.50;99.70
44271;DHT22;29963;44.594;11.368;2023-08-08T04:23:12;17.40;99.90
44271;DHT22;29963;44.594;11.368;2023-08-08T04:25:38;17.40;99.90
44271;DHT22;29963;44.594;11.368;2023-08-08T04:28:04;17.50;99.90
44271;DHT22;29963;44.594;11.368;2023-08-08T04:30:29;17.60;99.90
44271;DHT22;29963;44.594;11.368;2023-08-08T04:32:55;17.70;99.90
44271;DHT22;29963;44.594;11.368;2023-08-08T04:35:20;17.90;99.90
44271;DHT22;29963;44.594;11.368;2023-08-08T04:37:46;18.10;99.90
44271;DHT22;29963;44.594;11.368;2023-08-08T04:40:12;18.30;99.70
44271;DHT22;29963;44.594;11.368;2023-08-08T04:42:37;18.40;98.70
44271;DHT22;29963;44.594;11.368;2023-08-08T04:45:03;18.30;98.40
44271;DHT22;29963;44.594;11.368;2023-08-08T04:47:29;18.30;99.40
44271;DHT22;29963;44.594;11.368;2023-08-08T04:49:55;18.40;97.80
44271;DHT22;29963;44.594;11.368;2023-08-08T04:52:20;18.50;98.10
44271;DHT22;29963;44.594;11.368;2023-08-08T04:54:46;18.60;98.30
44271;DHT22;29963;44.594;11.368;2023-08-08T04:57:11;18.70;97.80
44271;DHT22;29963;44.594;11.368;2023-08-08T04:59:37;18.90;97.70
44271;DHT22;29963;44.594;11.368;2023-08-08T05:02:03;18.90;97.70
44271;DHT22;29963;44.594;11.368;2023-08-08T05:04:29;19.00;98.20
44271;DHT22;29963;44.594;11.368;2023-08-08T05:06:55;19.00;98.40
44271;DHT22;29963;44.594;11.368;2023-08-08T05:09:20;19.10;98.60
44271;DHT22;29963;44.594;11.368;2023-08-08T05:11:48;19.20;98.60
44271;DHT22;29963;44.594;11.368;2023-08-08T05:14:14;19.30;98.40
44271;DHT22;29963;44.594;11.368;2023-08-08T05:16:39;19.40;98.20
44271;DHT22;29963;44.594;11.368;2023-08-08T05:19:05;19.50;96.90
44271;DHT22;29963;44.594;11.368;2023-08-08T05:21:31;19.50;96.60
44271;DHT22;29963;44.594;11.368;2023-08-08T05:23:57;19.40;97.40
44271;DHT22;29963;44.594;11.368;2023-08-08T05:26:23;19.30;97.70
44271;DHT22;29963;44.594;11.368;2023-08-08T05:28:48;19.40;98.10
44271;DHT22;29963;44.594;11.368;2023-08-08T05:31:14;19.50;97.90
44271;DHT22;29963;44.594;11.368;2023-08-08T05:33:39;19.70;97.80
44271;DHT22;29963;44.594;11.368;2023-08-08T05:36:05;19.80;97.20
44271;DHT22;29963;44.594;11.368;2023-08-08T05:38:30;19.80;96.90
44271;DHT22;29963;44.594;11.368;2023-08-08T05:40:56;19.70;97.10
44271;DHT22;29963;44.594;11.368;2023-08-08T05:43:22;19.80;97.70
44271;DHT22;29963;44.594;11.368;2023-08-08T05:45:47;19.70;98.60
44271;DHT22;29963;44.594;11.368;2023-08-08T05:48:13;19.60;98.60
44271;DHT22;29963;44.594;11.368;2023-08-08T05:50:39;19.50;99.20
44271;DHT22;29963;44.594;11.368;2023-08-08T05:53:05;19.50;99.40
44271;DHT22;29963;44.594;11.368;2023-08-08T05:55:31;19.60;98.90
44271;DHT22;29963;44.594;11.368;2023-08-08T05:57:56;19.70;98.40
44271;DHT22;29963;44.594;11.368;2023-08-08T06:00:22;19.50;98.80
44271;DHT22;29963;44.594;11.368;2023-08-08T06:02:48;19.50;99.50
44271;DHT22;29963;44.594;11.368;2023-08-08T06:05:16;19.40;99.30
44271;DHT22;29963;44.594;11.368;2023-08-08T06:07:41;19.50;98.80
44271;DHT22;29963;44.594;11.368;2023-08-08T06:10:07;19.50;98.70
44271;DHT22;29963;44.594;11.368;2023-08-08T06:12:33;19.40;98.90
44271;DHT22;29963;44.594;11.368;2023-08-08T06:14:59;19.40;98.40
44271;DHT22;29963;44.594;11.368;2023-08-08T06:17:24;19.40;98.30
44271;DHT22;29963;44.594;11.368;2023-08-08T06:19:50;19.50;98.60
44271;DHT22;29963;44.594;11.368;2023-08-08T06:22:16;19.50;98.00
44271;DHT22;29963;44.594;11.368;2023-08-08T06:24:42;19.60;97.90
44271;DHT22;29963;44.594;11.368;2023-08-08T06:27:08;19.60;97.20
44271;DHT22;29963;44.594;11.368;2023-08-08T06:29:33;19.60;97.40
44271;DHT22;29963;44.594;11.368;2023-08-08T06:31:59;19.70;97.70
44271;DHT22;29963;44.594;11.368;2023-08-08T06:34:24;19.70;98.20
44271;DHT22;29963;44.594;11.368;2023-08-08T06:36:50;19.80;98.40
44271;DHT22;29963;44.594;11.368;2023-08-08T06:39:16;20.00;98.40
44271;DHT22;29963;44.594;11.368;2023-08-08T06:41:41;20.00;97.40
44271;DHT22;29963;44.594;11.368;2023-08-08T06:44:07;20.00;97.60
44271;DHT22;29963;44.594;11.368;2023-08-08T06:46:33;20.10;97.30
44271;DHT22;29963;44.594;11.368;2023-08-08T06:48:58;20.30;97.20
44271;DHT22;29963;44.594;11.368;2023-08-08T06:51:25;20.40;98.10
44271;DHT22;29963;44.594;11.368;2023-08-08T06:53:51;20.60;97.30
44271;DHT22;29963;44.594;11.368;2023-08-08T06:56:17;20.80;97.30
44271;DHT22;29963;44.594;11.368;2023-08-08T06:58:43;20.80;96.10
44271;DHT22;29963;44.594;11.368;2023-08-08T07:01:09;20.80;97.10
44271;DHT22;29963;44.594;11.368;2023-08-08T07:03:35;20.80;95.30
44271;DHT22;29963;44.594;11.368;2023-08-08T07:06:02;20.70;93.80
44271;DHT22;29963;44.594;11.368;2023-08-08T07:08:28;20.70;93.50
44271;DHT22;29963;44.594;11.368;2023-08-08T07:10:56;20.80;93.80
44271;DHT22;29963;44.594;11.368;2023-08-08T07:13:22;20.90;94.70
44271;DHT22;29963;44.594;11.368;2023-08-08T07:15:47;21.00;94.60
44271;DHT22;29963;44.594;11.368;2023-08-08T07:18:13;21.10;91.60
44271;DHT22;29963;44.594;11.368;2023-08-08T07:20:38;21.20;92.40
44271;DHT22;29963;44.594;11.368;2023-08-08T07:23:04;21.10;90.10
44271;DHT22;29963;44.594;11.368;2023-08-08T07:25:30;21.20;88.20
44271;DHT22;29963;44.594;11.368;2023-08-08T07:27:56;21.10;88.00
44271;DHT22;29963;44.594;11.368;2023-08-08T07:30:21;21.20;89.70
44271;DHT22;29963;44.594;11.368;2023-08-08T07:32:47;21.20;89.60
44271;DHT22;29963;44.594;11.368;2023-08-08T07:35:13;21.30;87.60
44271;DHT22;29963;44.594;11.368;2023-08-08T07:37:38;21.40;87.90
44271;DHT22;29963;44.594;11.368;2023-08-08T07:40:16;21.40;87.00
44271;DHT22;29963;44.594;11.368;2023-08-08T07:42:44;21.40;88.00
44271;DHT22;29963;44.594;11.368;2023-08-08T07:45:09;21.50;87.70
44271;DHT22;29963;44.594;11.368;2023-08-08T07:47:35;21.70;90.10
44271;DHT22;29963;44.594;11.368;2023-08-08T07:50:00;21.70;87.90
44271;DHT22;29963;44.594;11.368;2023-08-08T07:52:26;21.80;87.80
44271;DHT22;29963;44.594;11.368;2023-08-08T07:54:52;21.90;87.20
44271;DHT22;29963;44.594;11.368;2023-08-08T07:57:18;22.10;87.10
44271;DHT22;29963;44.594;11.368;2023-08-08T07:59:43;22.10;86.30
44271;DHT22;29963;44.594;11.368;2023-08-08T08:02:09;22.10;85.30
44271;DHT22;29963;44.594;11.368;2023-08-08T08:04:34;22.20;85.90
44271;DHT22;29963;44.594;11.368;2023-08-08T08:07:00;22.20;86.30
44271;DHT22;29963;44.594;11.368;2023-08-08T08:09:26;22.20;84.50
44271;DHT22;29963;44.594;11.368;2023-08-08T08:11:52;22.30;82.50
44271;DHT22;29963;44.594;11.368;2023-08-08T08:14:17;22.30;82.50
44271;DHT22;29963;44.594;11.368;2023-08-08T08:16:45;22.40;82.00
44271;DHT22;29963;44.594;11.368;2023-08-08T08:19:10;22.40;82.00
44271;DHT22;29963;44.594;11.368;2023-08-08T08:21:36;22.50;81.60
44271;DHT22;29963;44.594;11.368;2023-08-08T08:24:02;22.60;81.20
44271;DHT22;29963;44.594;11.368;2023-08-08T08:26:27;22.80;80.30
44271;DHT22;29963;44.594;11.368;2023-08-08T08:28:53;22.90;81.50
44271;DHT22;29963;44.594;11.368;2023-08-08T08:31:19;23.00;81.90
44271;DHT22;29963;44.594;11.368;2023-08-08T08:33:44;23.00;82.90
44271;DHT22;29963;44.594;11.368;2023-08-08T08:36:10;23.10;81.30
44271;DHT22;29963;44.594;11.368;2023-08-08T08:38:35;23.10;80.30
44271;DHT22;29963;44.594;11.368;2023-08-08T08:41:02;23.10;79.70
44271;DHT22;29963;44.594;11.368;2023-08-08T08:43:29;23.20;81.10
44271;DHT22;29963;44.594;11.368;2023-08-08T08:45:56;23.20;80.90
44271;DHT22;29963;44.594;11.368;2023-08-08T08:48:25;23.30;79.40
44271;DHT22;29963;44.594;11.368;2023-08-08T08:50:51;23.30;80.00
44271;DHT22;29963;44.594;11.368;2023-08-08T08:53:17;23.40;78.40
44271;DHT22;29963;44.594;11.368;2023-08-08T08:55:43;23.40;78.60
44271;DHT22;29963;44.594;11.368;2023-08-08T08:58:09;23.50;80.00
44271;DHT22;29963;44.594;11.368;2023-08-08T09:00:36;23.60;77.60
44271;DHT22;29963;44.594;11.368;2023-08-08T09:03:03;23.60;77.60
44271;DHT22;29963;44.594;11.368;2023-08-08T09:05:30;23.70;78.00
44271;DHT22;29963;44.594;11.368;2023-08-08T09:07:56;23.80;78.60
44271;DHT22;29963;44.594;11.368;2023-08-08T09:10:21;23.80;77.10
44271;DHT22;29963;44.594;11.368;2023-08-08T09:12:47;23.90;76.00
44271;DHT22;29963;44.594;11.368;2023-08-08T09:15:14;24.00;76.10
44271;DHT22;29963;44.594;11.368;2023-08-08T09:17:43;24.00;71.90
44271;DHT22;29963;44.594;11.368;2023-08-08T09:20:11;24.00;70.40
44271;DHT22;29963;44.594;11.368;2023-08-08T09:22:37;24.10;66.50
44271;DHT22;29963;44.594;11.368;2023-08-08T09:25:07;24.10;64.70
44271;DHT22;29963;44.594;11.368;2023-08-08T09:27:34;24.20;67.80
44271;DHT22;29963;44.594;11.368;2023-08-08T09:30:00;24.40;67.00
44271;DHT22;29963;44.594;11.368;2023-08-08T09:32:30;24.40;68.10
44271;DHT22;29963;44.594;11.368;2023-08-08T09:34:57;24.50;69.60
44271;DHT22;29963;44.594;11.368;2023-08-08T09:37:23;24.60;67.50
44271;DHT22;29963;44.594;11.368;2023-08-08T09:39:58;24.60;67.30
44271;DHT22;29963;44.594;11.368;2023-08-08T09:42:26;24.60;67.50
44271;DHT22;29963;44.594;11.368;2023-08-08T09:44:52;24.60;69.00
44271;DHT22;29963;44.594;11.368;2023-08-08T09:47:18;24.60;69.20
44271;DHT22;29963;44.594;11.368;2023-08-08T09:49:44;24.70;69.50
44271;DHT22;29963;44.594;11.368;2023-08-08T09:52:11;24.80;70.20
44271;DHT22;29963;44.594;11.368;2023-08-08T09:54:38;24.90;70.50
44271;DHT22;29963;44.594;11.368;2023-08-08T09:57:05;25.00;70.30
44271;DHT22;29963;44.594;11.368;2023-08-08T09:59:31;25.10;69.60
44271;DHT22;29963;44.594;11.368;2023-08-08T10:01:57;25.10;69.40
44271;DHT22;29963;44.594;11.368;2023-08-08T10:04:24;25.30;68.80
44271;DHT22;29963;44.594;11.368;2023-08-08T10:06:50;25.30;67.80
44271;DHT22;29963;44.594;11.368;2023-08-08T10:09:15;25.40;67.90
44271;DHT22;29963;44.594;11.368;2023-08-08T10:11:42;25.40;65.10
44271;DHT22;29963;44.594;11.368;2023-08-08T10:14:10;25.60;65.80
44271;DHT22;29963;44.594;11.368;2023-08-08T10:16:37;25.60;64.70
44271;DHT22;29963;44.594;11.368;2023-08-08T10:19:04;25.70;64.70
44271;DHT22;29963;44.594;11.368;2023-08-08T10:21:35;25.80;65.50
44271;DHT22;29963;44.594;11.368;2023-08-08T10:24:06;25.80;64.60
44271;DHT22;29963;44.594;11.368;2023-08-08T10:26:51;25.90;64.80
44271;DHT22;29963;44.594;11.368;2023-08-08T10:29:20;25.90;65.40
44271;DHT22;29963;44.594;11.368;2023-08-08T10:32:21;26.00;66.40
44271;DHT22;29963;44.594;11.368;2023-08-08T10:34:49;26.10;66.20
44271;DHT22;29963;44.594;11.368;2023-08-08T10:37:18;26.50;66.80
44271;DHT22;29963;44.594;11.368;2023-08-08T10:39:59;26.20;66.00
44271;DHT22;29963;44.594;11.368;2023-08-08T10:42:27;26.20;65.90
44271;DHT22;29963;44.594;11.368;2023-08-08T10:44:58;26.20;65.70
44271;DHT22;29963;44.594;11.368;2023-08-08T10:47:31;26.20;65.50
44271;DHT22;29963;44.594;11.368;2023-08-08T10:52:24;26.20;63.70
44271;DHT22;29963;44.594;11.368;2023-08-08T10:54:53;26.10;64.00
44271;DHT22;29963;44.594;11.368;2023-08-08T10:57:23;26.20;65.30
44271;DHT22;29963;44.594;11.368;2023-08-08T10:59:49;26.20;64.80
44271;DHT22;29963;44.594;11.368;2023-08-08T11:02:15;26.40;64.40
44271;DHT22;29963;44.594;11.368;2023-08-08T11:04:41;26.40;63.70
44271;DHT22;29963;44.594;11.368;2023-08-08T11:07:07;26.50;62.80
44271;DHT22;29963;44.594;11.368;2023-08-08T11:09:34;26.60;60.90
44271;DHT22;29963;44.594;11.368;2023-08-08T11:12:00;26.60;61.50
44271;DHT22;29963;44.594;11.368;2023-08-08T11:14:25;26.70;61.50
44271;DHT22;29963;44.594;11.368;2023-08-08T11:16:52;27.10;60.40
44271;DHT22;29963;44.594;11.368;2023-08-08T11:19:18;26.70;60.30
44271;DHT22;29963;44.594;11.368;2023-08-08T11:21:48;26.70;60.30
44271;DHT22;29963;44.594;11.368;2023-08-08T11:24:14;26.70;60.20
44271;DHT22;29963;44.594;11.368;2023-08-08T11:26:41;26.70;60.60
44271;DHT22;29963;44.594;11.368;2023-08-08T11:29:09;26.70;59.80
44271;DHT22;29963;44.594;11.368;2023-08-08T11:31:35;26.70;58.30
44271;DHT22;29963;44.594;11.368;2023-08-08T11:34:01;26.70;59.20
44271;DHT22;29963;44.594;11.368;2023-08-08T11:36:29;26.80;58.40
44271;DHT22;29963;44.594;11.368;2023-08-08T11:38:56;26.80;58.60
44271;DHT22;29963;44.594;11.368;2023-08-08T11:41:23;26.90;59.80
44271;DHT22;29963;44.594;11.368;2023-08-08T11:43:50;27.00;60.80
44271;DHT22;29963;44.594;11.368;2023-08-08T11:46:16;27.10;60.10
44271;DHT22;29963;44.594;11.368;2023-08-08T11:48:43;27.10;59.70
44271;DHT22;29963;44.594;11.368;2023-08-08T11:51:13;27.10;58.30
44271;DHT22;29963;44.594;11.368;2023-08-08T11:53:51;27.10;57.30
44271;DHT22;29963;44.594;11.368;2023-08-08T11:56:21;27.10;58.30
44271;DHT22;29963;44.594;11.368;2023-08-08T11:58:51;27.20;55.90
44271;DHT22;29963;44.594;11.368;2023-08-08T12:01:20;27.20;57.70
44271;DHT22;29963;44.594;11.368;2023-08-08T12:03:46;27.30;57.70
44271;DHT22;29963;44.594;11.368;2023-08-08T12:06:15;27.40;58.00
44271;DHT22;29963;44.594;11.368;2023-08-08T12:08:45;27.50;57.30
44271;DHT22;29963;44.594;11.368;2023-08-08T12:11:11;27.60;56.70
44271;DHT22;29963;44.594;11.368;2023-08-08T12:13:43;27.70;56.90
44271;DHT22;29963;44.594;11.368;2023-08-08T12:16:10;27.80;56.00
44271;DHT22;29963;44.594;11.368;2023-08-08T12:18:37;27.80;55.60
44271;DHT22;29963;44.594;11.368;2023-08-08T12:21:07;27.90;53.60
44271;DHT22;29963;44.594;11.368;2023-08-08T12:23:33;27.90;54.80
44271;DHT22;29963;44.594;11.368;2023-08-08T12:26:02;27.90;52.70
44271;DHT22;29963;44.594;11.368;2023-08-08T12:28:28;27.80;52.80
44271;DHT22;29963;44.594;11.368;2023-08-08T12:30:54;27.80;51.40
44271;DHT22;29963;44.594;11.368;2023-08-08T12:33:20;27.70;52.00
44271;DHT22;29963;44.594;11.368;2023-08-08T12:35:46;27.80;52.70
44271;DHT22;29963;44.594;11.368;2023-08-08T12:38:12;27.70;48.60
44271;DHT22;29963;44.594;11.368;2023-08-08T12:40:37;27.70;48.60
44271;DHT22;29963;44.594;11.368;2023-08-08T12:43:03;27.70;47.30
44271;DHT22;29963;44.594;11.368;2023-08-08T12:45:29;27.80;47.50
44271;DHT22;29963;44.594;11.368;2023-08-08T12:47:54;27.80;49.70
44271;DHT22;29963;44.594;11.368;2023-08-08T12:50:20;27.90;51.00
44271;DHT22;29963;44.594;11.368;2023-08-08T12:52:45;28.00;50.80
44271;DHT22;29963;44.594;11.368;2023-08-08T12:55:11;28.00;48.50
44271;DHT22;29963;44.594;11.368;2023-08-08T12:57:37;28.00;48.30
44271;DHT22;29963;44.594;11.368;2023-08-08T13:00:04;28.10;50.00
44271;DHT22;29963;44.594;11.368;2023-08-08T13:02:32;28.20;49.80
44271;DHT22;29963;44.594;11.368;2023-08-08T13:04:57;28.30;49.00
44271;DHT22;29963;44.594;11.368;2023-08-08T13:07:23;28.40;50.40
44271;DHT22;29963;44.594;11.368;2023-08-08T13:09:49;28.40;50.40
44271;DHT22;29963;44.594;11.368;2023-08-08T13:12:14;28.50;50.00
44271;DHT22;29963;44.594;11.368;2023-08-08T13:14:40;28.60;50.50
44271;DHT22;29963;44.594;11.368;2023-08-08T13:17:06;28.70;47.90
44271;DHT22;29963;44.594;11.368;2023-08-08T13:19:32;28.70;47.80
44271;DHT22;29963;44.594;11.368;2023-08-08T13:21:57;28.80;48.10
44271;DHT22;29963;44.594;11.368;2023-08-08T13:24:23;28.90;47.20
44271;DHT22;29963;44.594;11.368;2023-08-08T13:26:51;29.00;48.30
44271;DHT22;29963;44.594;11.368;2023-08-08T13:29:17;29.10;47.50
44271;DHT22;29963;44.594;11.368;2023-08-08T13:31:43;29.30;44.90
44271;DHT22;29963;44.594;11.368;2023-08-08T13:34:09;29.30;43.30
44271;DHT22;29963;44.594;11.368;2023-08-08T13:36:35;29.30;44.50
44271;DHT22;29963;44.594;11.368;2023-08-08T13:39:01;29.30;43.40
44271;DHT22;29963;44.594;11.368;2023-08-08T13:41:26;29.40;42.40
44271;DHT22;29963;44.594;11.368;2023-08-08T13:43:52;29.50;45.00
44271;DHT22;29963;44.594;11.368;2023-08-08T13:46:17;29.50;46.40
44271;DHT22;29963;44.594;11.368;2023-08-08T13:48:43;29.60;46.90
44271;DHT22;29963;44.594;11.368;2023-08-08T13:51:09;29.60;46.60
44271;DHT22;29963;44.594;11.368;2023-08-08T13:53:34;29.70;47.50
44271;DHT22;29963;44.594;11.368;2023-08-08T13:56:00;29.80;46.80
44271;DHT22;29963;44.594;11.368;2023-08-08T13:58:25;29.90;46.70
44271;DHT22;29963;44.594;11.368;2023-08-08T14:00:51;30.10;46.50
44271;DHT22;29963;44.594;11.368;2023-08-08T14:03:18;30.30;46.30
44271;DHT22;29963;44.594;11.368;2023-08-08T14:05:44;30.50;47.50
44271;DHT22;29963;44.594;11.368;2023-08-08T14:08:10;30.60;46.30
44271;DHT22;29963;44.594;11.368;2023-08-08T14:10:36;30.90;46.30
44271;DHT22;29963;44.594;11.368;2023-08-08T14:13:02;31.10;46.60
44271;DHT22;29963;44.594;11.368;2023-08-08T14:15:28;31.30;43.70
44271;DHT22;29963;44.594;11.368;2023-08-08T14:17:54;31.40;43.70
44271;DHT22;29963;44.594;11.368;2023-08-08T14:20:20;31.60;44.50
44271;DHT22;29963;44.594;11.368;2023-08-08T14:22:46;31.70;41.30
44271;DHT22;29963;44.594;11.368;2023-08-08T14:25:12;31.70;41.60
44271;DHT22;29963;44.594;11.368;2023-08-08T14:27:38;31.90;42.80
44271;DHT22;29963;44.594;11.368;2023-08-08T14:30:04;32.00;43.30
44271;DHT22;29963;44.594;11.368;2023-08-08T14:32:30;32.20;42.50
44271;DHT22;29963;44.594;11.368;2023-08-08T14:34:56;32.30;41.60
44271;DHT22;29963;44.594;11.368;2023-08-08T14:37:21;32.20;41.00
44271;DHT22;29963;44.594;11.368;2023-08-08T14:39:47;32.20;42.40
44271;DHT22;29963;44.594;11.368;2023-08-08T14:42:13;32.50;42.30
44271;DHT22;29963;44.594;11.368;2023-08-08T14:44:38;32.70;42.80
44271;DHT22;29963;44.594;11.368;2023-08-08T14:47:04;33.00;44.40
44271;DHT22;29963;44.594;11.368;2023-08-08T14:49:30;33.30;42.50
44271;DHT22;29963;44.594;11.368;2023-08-08T14:51:56;33.50;41.90
44271;DHT22;29963;44.594;11.368;2023-08-08T14:54:22;33.70;41.70
44271;DHT22;29963;44.594;11.368;2023-08-08T14:56:47;33.90;41.50
44271;DHT22;29963;44.594;11.368;2023-08-08T14:59:13;34.10;40.80
44271;DHT22;29963;44.594;11.368;2023-08-08T15:01:39;34.20;41.00
44271;DHT22;29963;44.594;11.368;2023-08-08T15:04:05;34.40;41.10
44271;DHT22;29963;44.594;11.368;2023-08-08T15:06:31;34.60;40.50
44271;DHT22;29963;44.594;11.368;2023-08-08T15:08:57;34.60;40.30
44271;DHT22;29963;44.594;11.368;2023-08-08T15:11:23;34.50;40.50
44271;DHT22;29963;44.594;11.368;2023-08-08T15:13:49;34.30;39.90
44271;DHT22;29963;44.594;11.368;2023-08-08T15:16:16;34.20;40.70